Strathmore, Canada
Current Conditions -  °F | °C
As of 1:00 AM on Monday 22 Dec 2014 (Local Time) from CYYC Reporting Station
Overcast Overcast  
Wind Chill: 25°   Ceiling: 10000
Heat Index: 25°   Visibility: 15mi
Dew Point: 21°   Wind: 3mph
Humidity: 86%   Direction: 20°NNE
Pressure: 29.65"   Gusts: NA
Location:  51.04°N, 113.38°W
Report Text: CYYC 220800Z 02003KT 300V050 15SM OVC100 M04/M06 A2965 RMK AC8 VIRGA ALQDS SLP085
Loading
Personal Weather Stations






























Interactive Weather Map New forecast layout! Learn more

10-Day Weather Forecast

Advertisements
Track Severe Weather on mobile